sensor_id;sensor_type;location;lat;lon;timestamp;P1;durP1;ratioP1;P2;durP2;ratioP2
73452;SDS011;61687;56.232;43.854;2023-04-16T00:00:18;37.83;;;13.70;;
73452;SDS011;61687;56.232;43.854;2023-04-16T00:02:43;36.08;;;13.38;;
73452;SDS011;61687;56.232;43.854;2023-04-16T00:05:09;29.85;;;11.80;;
73452;SDS011;61687;56.232;43.854;2023-04-16T00:07:35;29.90;;;13.07;;
73452;SDS011;61687;56.232;43.854;2023-04-16T00:10:01;39.90;;;13.43;;
73452;SDS011;61687;56.232;43.854;2023-04-16T00:12:29;36.03;;;12.63;;
73452;SDS011;61687;56.232;43.854;2023-04-16T00:14:55;39.50;;;12.38;;
73452;SDS011;61687;56.232;43.854;2023-04-16T00:17:21;34.97;;;13.32;;
73452;SDS011;61687;56.232;43.854;2023-04-16T00:19:47;28.57;;;11.83;;
73452;SDS011;61687;56.232;43.854;2023-04-16T00:22:13;34.83;;;11.98;;
73452;SDS011;61687;56.232;43.854;2023-04-16T00:24:38;25.45;;;12.05;;
73452;SDS011;61687;56.232;43.854;2023-04-16T00:27:05;31.00;;;12.15;;
73452;SDS011;61687;56.232;43.854;2023-04-16T00:29:31;27.25;;;12.75;;
73452;SDS011;61687;56.232;43.854;2023-04-16T00:31:58;28.33;;;12.18;;
73452;SDS011;61687;56.232;43.854;2023-04-16T00:34:23;28.10;;;11.13;;
73452;SDS011;61687;56.232;43.854;2023-04-16T00:36:50;27.30;;;11.70;;
73452;SDS011;61687;56.232;43.854;2023-04-16T00:39:16;27.67;;;11.55;;
73452;SDS011;61687;56.232;43.854;2023-04-16T00:41:42;25.08;;;11.55;;
73452;SDS011;61687;56.232;43.854;2023-04-16T00:44:08;32.42;;;11.85;;
73452;SDS011;61687;56.232;43.854;2023-04-16T00:46:35;22.73;;;11.02;;
73452;SDS011;61687;56.232;43.854;2023-04-16T00:49:02;26.65;;;10.35;;
73452;SDS011;61687;56.232;43.854;2023-04-16T00:51:28;23.58;;;10.70;;
73452;SDS011;61687;56.232;43.854;2023-04-16T00:53:56;27.35;;;11.48;;
73452;SDS011;61687;56.232;43.854;2023-04-16T00:56:22;25.58;;;9.77;;
73452;SDS011;61687;56.232;43.854;2023-04-16T00:58:49;27.77;;;11.20;;
73452;SDS011;61687;56.232;43.854;2023-04-16T01:01:15;22.73;;;10.43;;
73452;SDS011;61687;56.232;43.854;2023-04-16T01:03:45;26.50;;;11.15;;
73452;SDS011;61687;56.232;43.854;2023-04-16T01:06:12;29.05;;;10.63;;
73452;SDS011;61687;56.232;43.854;2023-04-16T01:08:38;30.00;;;11.25;;
73452;SDS011;61687;56.232;43.854;2023-04-16T01:11:04;24.08;;;11.40;;
73452;SDS011;61687;56.232;43.854;2023-04-16T01:13:31;22.63;;;10.90;;
73452;SDS011;61687;56.232;43.854;2023-04-16T01:15:58;26.17;;;11.13;;
73452;SDS011;61687;56.232;43.854;2023-04-16T01:18:25;26.73;;;11.63;;
73452;SDS011;61687;56.232;43.854;2023-04-16T01:20:51;34.72;;;12.05;;
73452;SDS011;61687;56.232;43.854;2023-04-16T01:23:17;31.27;;;10.00;;
73452;SDS011;61687;56.232;43.854;2023-04-16T01:25:44;24.88;;;10.20;;
73452;SDS011;61687;56.232;43.854;2023-04-16T01:28:10;22.63;;;10.48;;
73452;SDS011;61687;56.232;43.854;2023-04-16T01:30:37;25.20;;;10.88;;
73452;SDS011;61687;56.232;43.854;2023-04-16T01:33:14;28.05;;;10.55;;
73452;SDS011;61687;56.232;43.854;2023-04-16T01:35:40;26.73;;;10.60;;
73452;SDS011;61687;56.232;43.854;2023-04-16T01:38:07;26.00;;;11.15;;
73452;SDS011;61687;56.232;43.854;2023-04-16T01:40:34;29.80;;;11.73;;
73452;SDS011;61687;56.232;43.854;2023-04-16T01:43:00;25.45;;;11.48;;
73452;SDS011;61687;56.232;43.854;2023-04-16T01:45:27;25.15;;;11.40;;
73452;SDS011;61687;56.232;43.854;2023-04-16T01:47:53;28.08;;;11.23;;
73452;SDS011;61687;56.232;43.854;2023-04-16T01:50:19;21.70;;;10.63;;
73452;SDS011;61687;56.232;43.854;2023-04-16T01:52:45;24.67;;;11.20;;
73452;SDS011;61687;56.232;43.854;2023-04-16T01:55:12;30.77;;;12.32;;
73452;SDS011;61687;56.232;43.854;2023-04-16T01:57:38;27.63;;;11.90;;
73452;SDS011;61687;56.232;43.854;2023-04-16T02:00:04;29.63;;;11.55;;
73452;SDS011;61687;56.232;43.854;2023-04-16T02:02:33;27.00;;;12.38;;
73452;SDS011;61687;56.232;43.854;2023-04-16T02:05:00;25.70;;;12.02;;
73452;SDS011;61687;56.232;43.854;2023-04-16T02:07:26;32.85;;;12.55;;
73452;SDS011;61687;56.232;43.854;2023-04-16T02:09:52;28.27;;;12.63;;
73452;SDS011;61687;56.232;43.854;2023-04-16T02:12:19;29.90;;;12.32;;
73452;SDS011;61687;56.232;43.854;2023-04-16T02:14:47;29.30;;;12.50;;
73452;SDS011;61687;56.232;43.854;2023-04-16T02:17:15;31.98;;;13.43;;
73452;SDS011;61687;56.232;43.854;2023-04-16T02:19:43;32.90;;;14.40;;
73452;SDS011;61687;56.232;43.854;2023-04-16T02:22:09;38.70;;;14.60;;
73452;SDS011;61687;56.232;43.854;2023-04-16T02:24:35;35.22;;;14.98;;
73452;SDS011;61687;56.232;43.854;2023-04-16T02:27:05;35.78;;;14.77;;
73452;SDS011;61687;56.232;43.854;2023-04-16T02:29:31;36.30;;;16.30;;
73452;SDS011;61687;56.232;43.854;2023-04-16T02:32:08;39.08;;;15.75;;
73452;SDS011;61687;56.232;43.854;2023-04-16T02:34:35;38.42;;;15.77;;
73452;SDS011;61687;56.232;43.854;2023-04-16T02:37:01;40.78;;;16.25;;
73452;SDS011;61687;56.232;43.854;2023-04-16T02:39:27;40.63;;;17.15;;
73452;SDS011;61687;56.232;43.854;2023-04-16T02:41:53;47.33;;;18.50;;
73452;SDS011;61687;56.232;43.854;2023-04-16T02:44:20;57.33;;;18.83;;
73452;SDS011;61687;56.232;43.854;2023-04-16T02:46:47;48.78;;;17.88;;
73452;SDS011;61687;56.232;43.854;2023-04-16T02:49:13;43.20;;;18.27;;
73452;SDS011;61687;56.232;43.854;2023-04-16T02:51:38;54.70;;;19.88;;
73452;SDS011;61687;56.232;43.854;2023-04-16T02:54:04;50.07;;;17.60;;
73452;SDS011;61687;56.232;43.854;2023-04-16T02:56:31;51.45;;;19.75;;
73452;SDS011;61687;56.232;43.854;2023-04-16T02:58:57;47.90;;;20.33;;
73452;SDS011;61687;56.232;43.854;2023-04-16T03:01:23;56.83;;;19.65;;
73452;SDS011;61687;56.232;43.854;2023-04-16T03:03:49;50.30;;;20.20;;
73452;SDS011;61687;56.232;43.854;2023-04-16T03:06:15;54.13;;;21.30;;
73452;SDS011;61687;56.232;43.854;2023-04-16T03:08:41;53.22;;;19.58;;
73452;SDS011;61687;56.232;43.854;2023-04-16T03:11:07;56.60;;;20.15;;
73452;SDS011;61687;56.232;43.854;2023-04-16T03:13:33;43.83;;;17.60;;
73452;SDS011;61687;56.232;43.854;2023-04-16T03:15:59;75.63;;;20.75;;
73452;SDS011;61687;56.232;43.854;2023-04-16T03:18:25;54.30;;;19.00;;
73452;SDS011;61687;56.232;43.854;2023-04-16T03:20:51;56.47;;;20.87;;
73452;SDS011;61687;56.232;43.854;2023-04-16T03:23:18;44.92;;;18.08;;
73452;SDS011;61687;56.232;43.854;2023-04-16T03:25:44;26.83;;;12.40;;
73452;SDS011;61687;56.232;43.854;2023-04-16T03:28:15;21.40;;;9.50;;
73452;SDS011;61687;56.232;43.854;2023-04-16T03:30:41;37.55;;;13.95;;
73452;SDS011;61687;56.232;43.854;2023-04-16T03:33:07;30.40;;;11.93;;
73452;SDS011;61687;56.232;43.854;2023-04-16T03:35:34;35.92;;;11.85;;
73452;SDS011;61687;56.232;43.854;2023-04-16T03:38:01;50.38;;;15.40;;
73452;SDS011;61687;56.232;43.854;2023-04-16T03:40:27;24.90;;;11.25;;
73452;SDS011;61687;56.232;43.854;2023-04-16T03:42:54;29.08;;;11.90;;
73452;SDS011;61687;56.232;43.854;2023-04-16T03:45:20;28.90;;;11.87;;
73452;SDS011;61687;56.232;43.854;2023-04-16T03:47:48;24.95;;;11.20;;
73452;SDS011;61687;56.232;43.854;2023-04-16T03:50:19;30.30;;;10.82;;
73452;SDS011;61687;56.232;43.854;2023-04-16T03:52:46;25.85;;;9.55;;
73452;SDS011;61687;56.232;43.854;2023-04-16T03:55:14;18.92;;;9.13;;
73452;SDS011;61687;56.232;43.854;2023-04-16T03:57:40;22.20;;;8.50;;
73452;SDS011;61687;56.232;43.854;2023-04-16T04:00:10;20.45;;;7.85;;
73452;SDS011;61687;56.232;43.854;2023-04-16T04:03:02;16.23;;;7.72;;
73452;SDS011;61687;56.232;43.854;2023-04-16T04:05:29;18.05;;;8.13;;
73452;SDS011;61687;56.232;43.854;2023-04-16T04:07:57;17.33;;;8.45;;
73452;SDS011;61687;56.232;43.854;2023-04-16T04:10:23;20.87;;;8.23;;
73452;SDS011;61687;56.232;43.854;2023-04-16T04:12:49;17.80;;;7.82;;
73452;SDS011;61687;56.232;43.854;2023-04-16T04:15:15;18.02;;;7.85;;
73452;SDS011;61687;56.232;43.854;2023-04-16T04:17:41;117.90;;;13.05;;
73452;SDS011;61687;56.232;43.854;2023-04-16T04:20:08;23.73;;;8.90;;
73452;SDS011;61687;56.232;43.854;2023-04-16T04:22:35;18.25;;;8.75;;
73452;SDS011;61687;56.232;43.854;2023-04-16T04:25:01;20.15;;;9.18;;
73452;SDS011;61687;56.232;43.854;2023-04-16T04:27:30;16.10;;;8.18;;
73452;SDS011;61687;56.232;43.854;2023-04-16T04:29:56;24.95;;;10.05;;
73452;SDS011;61687;56.232;43.854;2023-04-16T04:32:23;28.23;;;10.40;;
73452;SDS011;61687;56.232;43.854;2023-04-16T04:34:49;23.95;;;10.20;;
73452;SDS011;61687;56.232;43.854;2023-04-16T04:37:15;28.50;;;10.43;;
73452;SDS011;61687;56.232;43.854;2023-04-16T04:39:42;20.83;;;9.10;;
73452;SDS011;61687;56.232;43.854;2023-04-16T04:42:08;19.90;;;8.13;;
73452;SDS011;61687;56.232;43.854;2023-04-16T04:44:34;19.95;;;9.52;;
73452;SDS011;61687;56.232;43.854;2023-04-16T04:47:00;23.08;;;9.13;;
73452;SDS011;61687;56.232;43.854;2023-04-16T04:49:26;26.33;;;9.57;;
73452;SDS011;61687;56.232;43.854;2023-04-16T04:51:52;16.35;;;8.00;;
73452;SDS011;61687;56.232;43.854;2023-04-16T04:54:19;18.40;;;7.60;;
73452;SDS011;61687;56.232;43.854;2023-04-16T04:56:45;15.35;;;7.03;;
73452;SDS011;61687;56.232;43.854;2023-04-16T04:59:12;16.08;;;6.25;;
73452;SDS011;61687;56.232;43.854;2023-04-16T05:01:40;15.65;;;7.50;;
73452;SDS011;61687;56.232;43.854;2023-04-16T05:04:06;16.97;;;8.23;;
73452;SDS011;61687;56.232;43.854;2023-04-16T05:06:32;13.90;;;6.93;;
73452;SDS011;61687;56.232;43.854;2023-04-16T05:08:58;19.05;;;7.50;;
73452;SDS011;61687;56.232;43.854;2023-04-16T05:11:24;15.57;;;6.50;;
73452;SDS011;61687;56.232;43.854;2023-04-16T05:13:50;19.83;;;7.68;;
73452;SDS011;61687;56.232;43.854;2023-04-16T05:16:16;18.08;;;7.30;;
73452;SDS011;61687;56.232;43.854;2023-04-16T05:18:42;16.95;;;7.22;;
73452;SDS011;61687;56.232;43.854;2023-04-16T05:21:08;15.03;;;6.90;;
73452;SDS011;61687;56.232;43.854;2023-04-16T05:23:34;16.83;;;7.70;;
73452;SDS011;61687;56.232;43.854;2023-04-16T05:26:00;14.20;;;7.25;;
73452;SDS011;61687;56.232;43.854;2023-04-16T05:28:25;15.30;;;8.17;;
73452;SDS011;61687;56.232;43.854;2023-04-16T05:30:51;21.60;;;9.48;;
73452;SDS011;61687;56.232;43.854;2023-04-16T05:33:17;17.40;;;8.32;;
73452;SDS011;61687;56.232;43.854;2023-04-16T05:35:43;28.13;;;9.77;;
73452;SDS011;61687;56.232;43.854;2023-04-16T05:38:09;20.93;;;8.80;;
73452;SDS011;61687;56.232;43.854;2023-04-16T05:40:35;25.88;;;9.77;;
73452;SDS011;61687;56.232;43.854;2023-04-16T05:43:01;17.03;;;8.63;;
73452;SDS011;61687;56.232;43.854;2023-04-16T05:45:27;17.92;;;8.18;;
73452;SDS011;61687;56.232;43.854;2023-04-16T05:47:52;15.07;;;7.47;;
73452;SDS011;61687;56.232;43.854;2023-04-16T05:50:18;15.97;;;7.13;;
73452;SDS011;61687;56.232;43.854;2023-04-16T05:52:44;14.60;;;7.00;;
73452;SDS011;61687;56.232;43.854;2023-04-16T05:55:10;16.05;;;7.35;;
73452;SDS011;61687;56.232;43.854;2023-04-16T05:57:36;13.47;;;7.57;;
73452;SDS011;61687;56.232;43.854;2023-04-16T06:00:02;16.00;;;7.40;;
73452;SDS011;61687;56.232;43.854;2023-04-16T06:02:37;14.20;;;6.30;;
73452;SDS011;61687;56.232;43.854;2023-04-16T06:05:03;15.27;;;7.20;;
73452;SDS011;61687;56.232;43.854;2023-04-16T06:07:30;12.60;;;6.68;;
73452;SDS011;61687;56.232;43.854;2023-04-16T06:09:56;9.53;;;5.40;;
73452;SDS011;61687;56.232;43.854;2023-04-16T06:12:21;13.10;;;5.93;;
73452;SDS011;61687;56.232;43.854;2023-04-16T06:14:47;11.77;;;5.90;;
73452;SDS011;61687;56.232;43.854;2023-04-16T06:17:13;9.30;;;4.73;;
73452;SDS011;61687;56.232;43.854;2023-04-16T06:19:39;11.57;;;5.80;;
73452;SDS011;61687;56.232;43.854;2023-04-16T06:22:06;11.23;;;5.85;;
73452;SDS011;61687;56.232;43.854;2023-04-16T06:24:32;8.43;;;4.68;;
73452;SDS011;61687;56.232;43.854;2023-04-16T06:26:58;10.20;;;4.83;;
73452;SDS011;61687;56.232;43.854;2023-04-16T06:29:23;8.57;;;4.18;;
73452;SDS011;61687;56.232;43.854;2023-04-16T06:31:49;12.65;;;5.40;;
73452;SDS011;61687;56.232;43.854;2023-04-16T06:34:15;7.60;;;4.47;;
73452;SDS011;61687;56.232;43.854;2023-04-16T06:36:41;8.30;;;4.68;;
73452;SDS011;61687;56.232;43.854;2023-04-16T06:39:07;8.98;;;4.55;;
73452;SDS011;61687;56.232;43.854;2023-04-16T06:41:33;10.53;;;5.33;;
73452;SDS011;61687;56.232;43.854;2023-04-16T06:44:00;9.88;;;4.25;;
73452;SDS011;61687;56.232;43.854;2023-04-16T06:46:26;7.70;;;4.88;;
73452;SDS011;61687;56.232;43.854;2023-04-16T06:48:52;7.45;;;4.72;;
73452;SDS011;61687;56.232;43.854;2023-04-16T06:51:18;11.07;;;5.73;;
73452;SDS011;61687;56.232;43.854;2023-04-16T06:53:44;12.80;;;4.40;;
73452;SDS011;61687;56.232;43.854;2023-04-16T06:56:10;6.30;;;3.25;;
73452;SDS011;61687;56.232;43.854;2023-04-16T06:58:37;5.72;;;3.63;;
73452;SDS011;61687;56.232;43.854;2023-04-16T07:01:03;5.97;;;3.87;;
73452;SDS011;61687;56.232;43.854;2023-04-16T07:03:30;5.65;;;3.55;;
73452;SDS011;61687;56.232;43.854;2023-04-16T07:05:56;6.43;;;3.63;;
73452;SDS011;61687;56.232;43.854;2023-04-16T07:08:22;6.68;;;4.45;;
73452;SDS011;61687;56.232;43.854;2023-04-16T07:10:47;6.77;;;3.87;;
73452;SDS011;61687;56.232;43.854;2023-04-16T07:13:13;6.45;;;3.40;;
73452;SDS011;61687;56.232;43.854;2023-04-16T07:15:39;6.15;;;3.33;;
73452;SDS011;61687;56.232;43.854;2023-04-16T07:18:05;6.47;;;3.57;;
73452;SDS011;61687;56.232;43.854;2023-04-16T07:20:31;7.53;;;3.75;;
73452;SDS011;61687;56.232;43.854;2023-04-16T07:22:57;8.32;;;3.25;;
73452;SDS011;61687;56.232;43.854;2023-04-16T07:25:23;5.50;;;3.45;;
73452;SDS011;61687;56.232;43.854;2023-04-16T07:27:51;17.63;;;4.20;;
73452;SDS011;61687;56.232;43.854;2023-04-16T07:30:17;8.50;;;3.85;;
73452;SDS011;61687;56.232;43.854;2023-04-16T07:32:43;11.40;;;3.83;;
73452;SDS011;61687;56.232;43.854;2023-04-16T07:35:09;8.90;;;3.70;;
73452;SDS011;61687;56.232;43.854;2023-04-16T07:37:34;7.50;;;3.55;;
73452;SDS011;61687;56.232;43.854;2023-04-16T07:40:00;8.80;;;2.78;;
73452;SDS011;61687;56.232;43.854;2023-04-16T07:42:26;5.47;;;3.13;;
73452;SDS011;61687;56.232;43.854;2023-04-16T07:44:53;6.47;;;3.58;;
73452;SDS011;61687;56.232;43.854;2023-04-16T07:47:19;5.57;;;3.17;;
73452;SDS011;61687;56.232;43.854;2023-04-16T07:49:47;4.90;;;2.55;;
73452;SDS011;61687;56.232;43.854;2023-04-16T07:52:15;5.88;;;2.97;;
73452;SDS011;61687;56.232;43.854;2023-04-16T07:54:40;9.93;;;2.97;;
73452;SDS011;61687;56.232;43.854;2023-04-16T07:57:06;4.28;;;2.97;;
73452;SDS011;61687;56.232;43.854;2023-04-16T07:59:32;5.00;;;2.63;;
73452;SDS011;61687;56.232;43.854;2023-04-16T08:01:58;4.63;;;2.83;;
73452;SDS011;61687;56.232;43.854;2023-04-16T08:04:24;10.13;;;3.13;;
73452;SDS011;61687;56.232;43.854;2023-04-16T08:06:50;4.03;;;2.53;;
73452;SDS011;61687;56.232;43.854;2023-04-16T08:09:21;4.63;;;2.80;;
73452;SDS011;61687;56.232;43.854;2023-04-16T08:11:53;3.55;;;2.17;;
73452;SDS011;61687;56.232;43.854;2023-04-16T08:14:19;5.45;;;2.45;;
73452;SDS011;61687;56.232;43.854;2023-04-16T08:16:45;6.53;;;3.13;;
73452;SDS011;61687;56.232;43.854;2023-04-16T08:19:11;4.13;;;2.30;;
73452;SDS011;61687;56.232;43.854;2023-04-16T08:21:37;7.70;;;2.22;;
73452;SDS011;61687;56.232;43.854;2023-04-16T08:24:03;4.45;;;2.45;;
73452;SDS011;61687;56.232;43.854;2023-04-16T08:26:29;4.70;;;3.13;;
73452;SDS011;61687;56.232;43.854;2023-04-16T08:28:55;4.53;;;2.47;;
73452;SDS011;61687;56.232;43.854;2023-04-16T08:31:21;4.47;;;3.03;;
73452;SDS011;61687;56.232;43.854;2023-04-16T08:33:47;6.03;;;3.10;;
73452;SDS011;61687;56.232;43.854;2023-04-16T08:36:13;8.32;;;2.65;;
73452;SDS011;61687;56.232;43.854;2023-04-16T08:38:39;6.43;;;2.58;;
73452;SDS011;61687;56.232;43.854;2023-04-16T08:41:05;4.40;;;3.20;;
73452;SDS011;61687;56.232;43.854;2023-04-16T08:43:36;12.63;;;3.15;;
73452;SDS011;61687;56.232;43.854;2023-04-16T08:46:04;8.05;;;3.38;;
73452;SDS011;61687;56.232;43.854;2023-04-16T08:48:31;4.40;;;3.10;;
73452;SDS011;61687;56.232;43.854;2023-04-16T08:50:58;4.27;;;2.60;;
73452;SDS011;61687;56.232;43.854;2023-04-16T08:53:31;4.45;;;2.70;;
73452;SDS011;61687;56.232;43.854;2023-04-16T08:56:03;7.93;;;3.45;;
73452;SDS011;61687;56.232;43.854;2023-04-16T08:58:33;6.88;;;3.33;;
73452;SDS011;61687;56.232;43.854;2023-04-16T09:01:02;4.95;;;2.65;;
73452;SDS011;61687;56.232;43.854;2023-04-16T09:03:30;5.60;;;2.57;;
73452;SDS011;61687;56.232;43.854;2023-04-16T09:05:57;7.40;;;2.38;;
73452;SDS011;61687;56.232;43.854;2023-04-16T09:08:24;7.93;;;2.65;;
73452;SDS011;61687;56.232;43.854;2023-04-16T09:10:50;7.18;;;2.70;;
73452;SDS011;61687;56.232;43.854;2023-04-16T09:13:18;4.05;;;2.55;;
73452;SDS011;61687;56.232;43.854;2023-04-16T09:15:45;5.50;;;2.40;;
73452;SDS011;61687;56.232;43.854;2023-04-16T09:18:11;4.72;;;2.63;;
73452;SDS011;61687;56.232;43.854;2023-04-16T09:20:37;6.25;;;3.13;;
73452;SDS011;61687;56.232;43.854;2023-04-16T09:23:04;7.15;;;4.00;;
73452;SDS011;61687;56.232;43.854;2023-04-16T09:25:33;8.27;;;3.95;;
73452;SDS011;61687;56.232;43.854;2023-04-16T09:28:00;6.70;;;3.40;;
73452;SDS011;61687;56.232;43.854;2023-04-16T09:30:26;7.03;;;3.30;;
73452;SDS011;61687;56.232;43.854;2023-04-16T09:33:25;6.85;;;3.25;;
73452;SDS011;61687;56.232;43.854;2023-04-16T09:35:49;7.95;;;3.47;;
73452;SDS011;61687;56.232;43.854;2023-04-16T09:38:17;5.83;;;3.10;;
73452;SDS011;61687;56.232;43.854;2023-04-16T09:40:43;10.52;;;3.05;;
73452;SDS011;61687;56.232;43.854;2023-04-16T09:43:12;10.25;;;3.55;;
73452;SDS011;61687;56.232;43.854;2023-04-16T09:45:49;5.95;;;3.15;;
73452;SDS011;61687;56.232;43.854;2023-04-16T09:50:56;4.83;;;3.10;;
73452;SDS011;61687;56.232;43.854;2023-04-16T09:53:26;5.70;;;2.58;;
73452;SDS011;61687;56.232;43.854;2023-04-16T09:55:57;5.53;;;3.25;;
73452;SDS011;61687;56.232;43.854;2023-04-16T09:58:29;5.63;;;3.28;;
73452;SDS011;61687;56.232;43.854;2023-04-16T10:01:05;7.78;;;3.08;;
73452;SDS011;61687;56.232;43.854;2023-04-16T10:03:36;7.27;;;2.60;;
73452;SDS011;61687;56.232;43.854;2023-04-16T10:08:46;6.40;;;3.17;;
73452;SDS011;61687;56.232;43.854;2023-04-16T10:11:17;5.65;;;3.35;;
73452;SDS011;61687;56.232;43.854;2023-04-16T10:13:44;10.90;;;3.85;;
73452;SDS011;61687;56.232;43.854;2023-04-16T10:16:11;5.47;;;3.17;;
73452;SDS011;61687;56.232;43.854;2023-04-16T10:18:40;7.28;;;3.42;;
73452;SDS011;61687;56.232;43.854;2023-04-16T10:21:08;9.45;;;3.58;;
73452;SDS011;61687;56.232;43.854;2023-04-16T10:23:38;10.32;;;3.22;;
73452;SDS011;61687;56.232;43.854;2023-04-16T10:26:05;7.90;;;3.63;;
73452;SDS011;61687;56.232;43.854;2023-04-16T10:28:31;4.70;;;2.87;;
73452;SDS011;61687;56.232;43.854;2023-04-16T10:31:00;6.55;;;3.72;;
73452;SDS011;61687;56.232;43.854;2023-04-16T10:33:32;5.07;;;3.28;;
73452;SDS011;61687;56.232;43.854;2023-04-16T10:36:10;6.75;;;3.40;;
73452;SDS011;61687;56.232;43.854;2023-04-16T10:38:38;16.00;;;3.92;;
73452;SDS011;61687;56.232;43.854;2023-04-16T10:41:06;6.17;;;3.47;;
73452;SDS011;61687;56.232;43.854;2023-04-16T10:43:41;4.30;;;2.75;;
73452;SDS011;61687;56.232;43.854;2023-04-16T10:46:21;5.53;;;3.50;;
73452;SDS011;61687;56.232;43.854;2023-04-16T10:48:52;6.97;;;2.67;;
73452;SDS011;61687;56.232;43.854;2023-04-16T10:51:28;5.60;;;3.05;;
73452;SDS011;61687;56.232;43.854;2023-04-16T10:54:02;4.97;;;2.90;;
73452;SDS011;61687;56.232;43.854;2023-04-16T10:56:44;5.97;;;3.00;;
73452;SDS011;61687;56.232;43.854;2023-04-16T10:59:11;7.03;;;4.18;;
73452;SDS011;61687;56.232;43.854;2023-04-16T11:01:43;6.28;;;3.92;;
73452;SDS011;61687;56.232;43.854;2023-04-16T11:06:59;7.50;;;3.70;;
73452;SDS011;61687;56.232;43.854;2023-04-16T11:09:54;7.22;;;2.72;;
73452;SDS011;61687;56.232;43.854;2023-04-16T11:14:58;8.57;;;4.50;;
73452;SDS011;61687;56.232;43.854;2023-04-16T11:17:31;11.75;;;3.95;;
73452;SDS011;61687;56.232;43.854;2023-04-16T11:20:14;10.23;;;3.20;;
73452;SDS011;61687;56.232;43.854;2023-04-16T11:22:41;9.88;;;3.85;;
73452;SDS011;61687;56.232;43.854;2023-04-16T11:25:08;5.18;;;3.10;;
73452;SDS011;61687;56.232;43.854;2023-04-16T11:27:34;4.72;;;3.58;;
73452;SDS011;61687;56.232;43.854;2023-04-16T11:30:00;5.38;;;3.80;;
73452;SDS011;61687;56.232;43.854;2023-04-16T11:32:36;6.33;;;3.00;;
73452;SDS011;61687;56.232;43.854;2023-04-16T11:35:04;5.15;;;2.97;;
73452;SDS011;61687;56.232;43.854;2023-04-16T11:37:37;6.00;;;3.72;;
73452;SDS011;61687;56.232;43.854;2023-04-16T11:40:04;5.68;;;3.63;;
73452;SDS011;61687;56.232;43.854;2023-04-16T11:42:32;5.22;;;3.05;;
73452;SDS011;61687;56.232;43.854;2023-04-16T11:45:01;5.60;;;3.23;;
73452;SDS011;61687;56.232;43.854;2023-04-16T11:47:32;6.15;;;3.05;;
73452;SDS011;61687;56.232;43.854;2023-04-16T11:50:23;6.40;;;3.40;;
73452;SDS011;61687;56.232;43.854;2023-04-16T11:52:51;7.07;;;3.53;;
73452;SDS011;61687;56.232;43.854;2023-04-16T11:55:18;6.35;;;3.88;;
73452;SDS011;61687;56.232;43.854;2023-04-16T11:57:46;7.77;;;3.10;;
73452;SDS011;61687;56.232;43.854;2023-04-16T12:00:13;6.05;;;2.72;;
73452;SDS011;61687;56.232;43.854;2023-04-16T12:02:42;7.65;;;4.35;;
73452;SDS011;61687;56.232;43.854;2023-04-16T12:05:25;13.77;;;3.50;;
73452;SDS011;61687;56.232;43.854;2023-04-16T12:07:53;5.00;;;3.67;;
73452;SDS011;61687;56.232;43.854;2023-04-16T12:10:19;4.87;;;3.07;;
73452;SDS011;61687;56.232;43.854;2023-04-16T12:12:46;17.15;;;3.63;;
73452;SDS011;61687;56.232;43.854;2023-04-16T12:15:11;6.63;;;3.65;;
73452;SDS011;61687;56.232;43.854;2023-04-16T12:17:38;4.63;;;2.80;;
73452;SDS011;61687;56.232;43.854;2023-04-16T12:20:13;5.63;;;3.67;;
73452;SDS011;61687;56.232;43.854;2023-04-16T12:22:43;8.43;;;3.20;;
73452;SDS011;61687;56.232;43.854;2023-04-16T12:25:14;5.53;;;4.30;;
73452;SDS011;61687;56.232;43.854;2023-04-16T12:27:49;15.30;;;7.13;;
73452;SDS011;61687;56.232;43.854;2023-04-16T12:30:18;7.55;;;4.10;;
73452;SDS011;61687;56.232;43.854;2023-04-16T12:32:46;7.18;;;4.00;;
73452;SDS011;61687;56.232;43.854;2023-04-16T12:35:13;8.10;;;4.37;;
73452;SDS011;61687;56.232;43.854;2023-04-16T12:37:57;7.72;;;3.95;;
73452;SDS011;61687;56.232;43.854;2023-04-16T12:40:23;8.05;;;3.97;;
73452;SDS011;61687;56.232;43.854;2023-04-16T12:42:49;10.80;;;6.82;;
73452;SDS011;61687;56.232;43.854;2023-04-16T12:45:15;7.03;;;3.78;;
73452;SDS011;61687;56.232;43.854;2023-04-16T12:47:41;6.50;;;3.90;;
73452;SDS011;61687;56.232;43.854;2023-04-16T12:50:07;8.05;;;4.70;;
73452;SDS011;61687;56.232;43.854;2023-04-16T12:52:33;13.20;;;4.13;;
73452;SDS011;61687;56.232;43.854;2023-04-16T12:55:00;6.03;;;3.15;;
73452;SDS011;61687;56.232;43.854;2023-04-16T12:57:30;8.57;;;3.63;;
73452;SDS011;61687;56.232;43.854;2023-04-16T12:59:57;4.88;;;3.00;;
73452;SDS011;61687;56.232;43.854;2023-04-16T13:02:23;21.80;;;4.43;;
73452;SDS011;61687;56.232;43.854;2023-04-16T13:04:50;6.57;;;4.10;;
73452;SDS011;61687;56.232;43.854;2023-04-16T13:07:17;6.60;;;3.95;;
73452;SDS011;61687;56.232;43.854;2023-04-16T13:09:43;5.53;;;3.63;;
73452;SDS011;61687;56.232;43.854;2023-04-16T13:12:10;7.50;;;3.00;;
73452;SDS011;61687;56.232;43.854;2023-04-16T13:14:36;8.82;;;4.28;;
73452;SDS011;61687;56.232;43.854;2023-04-16T13:17:02;11.13;;;4.63;;
73452;SDS011;61687;56.232;43.854;2023-04-16T13:19:29;5.72;;;3.13;;
73452;SDS011;61687;56.232;43.854;2023-04-16T13:21:55;6.37;;;4.20;;
73452;SDS011;61687;56.232;43.854;2023-04-16T13:24:21;6.85;;;3.80;;
73452;SDS011;61687;56.232;43.854;2023-04-16T13:26:48;8.23;;;4.25;;
73452;SDS011;61687;56.232;43.854;2023-04-16T13:29:14;7.30;;;4.05;;
73452;SDS011;61687;56.232;43.854;2023-04-16T13:31:40;5.67;;;3.60;;
73452;SDS011;61687;56.232;43.854;2023-04-16T13:34:06;6.10;;;3.85;;
73452;SDS011;61687;56.232;43.854;2023-04-16T13:36:32;5.85;;;2.85;;
73452;SDS011;61687;56.232;43.854;2023-04-16T13:38:58;7.30;;;4.55;;
73452;SDS011;61687;56.232;43.854;2023-04-16T13:41:24;7.63;;;3.77;;
73452;SDS011;61687;56.232;43.854;2023-04-16T13:43:50;8.83;;;4.57;;
73452;SDS011;61687;56.232;43.854;2023-04-16T13:46:16;7.03;;;4.28;;
73452;SDS011;61687;56.232;43.854;2023-04-16T13:48:43;6.28;;;3.28;;
73452;SDS011;61687;56.232;43.854;2023-04-16T13:51:10;6.30;;;4.03;;
73452;SDS011;61687;56.232;43.854;2023-04-16T13:53:37;8.00;;;4.03;;
73452;SDS011;61687;56.232;43.854;2023-04-16T13:56:02;11.18;;;3.88;;
73452;SDS011;61687;56.232;43.854;2023-04-16T13:58:29;6.50;;;3.55;;
73452;SDS011;61687;56.232;43.854;2023-04-16T14:00:55;6.75;;;3.33;;
73452;SDS011;61687;56.232;43.854;2023-04-16T14:03:21;8.63;;;3.97;;
73452;SDS011;61687;56.232;43.854;2023-04-16T14:05:47;7.70;;;3.50;;
73452;SDS011;61687;56.232;43.854;2023-04-16T14:08:12;13.48;;;4.57;;
73452;SDS011;61687;56.232;43.854;2023-04-16T14:10:40;7.55;;;4.05;;
73452;SDS011;61687;56.232;43.854;2023-04-16T14:13:06;12.47;;;4.03;;
73452;SDS011;61687;56.232;43.854;2023-04-16T14:15:32;8.05;;;4.22;;
73452;SDS011;61687;56.232;43.854;2023-04-16T14:17:58;6.85;;;4.00;;
73452;SDS011;61687;56.232;43.854;2023-04-16T14:20:25;8.52;;;3.70;;
73452;SDS011;61687;56.232;43.854;2023-04-16T14:22:51;6.43;;;3.93;;
73452;SDS011;61687;56.232;43.854;2023-04-16T14:25:17;8.43;;;3.67;;
73452;SDS011;61687;56.232;43.854;2023-04-16T14:27:43;6.63;;;3.38;;
73452;SDS011;61687;56.232;43.854;2023-04-16T14:30:09;9.73;;;4.60;;
73452;SDS011;61687;56.232;43.854;2023-04-16T14:32:35;9.13;;;4.73;;
73452;SDS011;61687;56.232;43.854;2023-04-16T14:35:01;11.18;;;4.90;;